This is the latest recevied weather packets stored in our database for station/object WE8M. If no packets are shown the sender has not sent any weather packets the latest 10 day(s).
| Time | Temp. | Humidity | Pressure | Rain* | Wind** | Luminosity | Snow |
|---|---|---|---|---|---|---|---|
| 1777691259 | 3.89° C | 93% | 1017.8 hPa | 0 mm | - | - | - |
| 1777690957 | 3.89° C | 93% | 1017.7 hPa | 0 mm | - | - | - |
| 1777690654 | 3.89° C | 92% | 1018.1 hPa | 0 mm | - | - | - |
| 1777690352 | 3.89° C | 92% | 1018 hPa | 0 mm | - | - | - |
| 1777690049 | 3.89° C | 91% | 1017.7 hPa | 0 mm | - | - | - |
| 1777689747 | 4.44° C | 91% | 1017.6 hPa | 0 mm | - | - | - |
| 1777689445 | 4.44° C | 91% | 1017.8 hPa | 0 mm | - | - | - |
| 1777689142 | 3.89° C | 90% | 1017.7 hPa | 0 mm | - | - | - |
| 1777688840 | 4.44° C | 89% | 1017.6 hPa | 0 mm | - | - | - |
| 1777674300 | 10.56° C | 61% | 1015.1 hPa | 0 mm | - | - | - |
| 1777670652 | 11.11° C | 58% | 1015.1 hPa | 0 mm | - | - | - |
| 1777670349 | 11.11° C | 59% | 1015 hPa | 0 mm | - | - | - |
| 1777670046 | 11.11° C | 57% | 1015 hPa | 0 mm | - | - | - |
| 1777669744 | 10.56° C | 61% | 1015.1 hPa | 0 mm | - | - | - |
| 1777669137 | 10.56° C | 63% | 1015 hPa | 0 mm | - | - | - |
| 1777667923 | 11.67° C | 59% | 1014.8 hPa | 0 mm | - | - | - |
| 1777667621 | 11.67° C | 58% | 1014.6 hPa | 0 mm | - | - | - |
| 1777667317 | 11.67° C | 58% | 1014.6 hPa | 0 mm | - | - | - |
| 1777666408 | 12.78° C | 51% | 1014.2 hPa | 0 mm | - | - | - |
| 1777666104 | 12.78° C | 57% | 1014.4 hPa | 0 mm | - | - | - |
| 1777665802 | 12.78° C | 54% | 1014.1 hPa | 0 mm | - | - | - |
| 1777665500 | 12.78° C | 53% | 1014.3 hPa | 0 mm | - | - | - |
| 1777663983 | 12.78° C | 57% | 1013.9 hPa | 0 mm | - | - | - |
| 1777662163 | 12.78° C | 59% | 1014.1 hPa | 0 mm | - | - | - |
| 1777661859 | 12.78° C | 57% | 1014.3 hPa | 0 mm | - | - | - |
* Rain latest hour (hover to see other rain measurements)
** Current wind speed in m/s (hover to see current wind gust speed)